Time;durP1;ratioP1;P1;durP2;ratioP2;P2;SDS_P1;SDS_P2;PMS_P1;PMS_P2;Temp;Humidity;BMP_temperature;BMP_pressure;BME280_temperature;BME280_humidity;BME280_pressure;Samples;Min_cycle;Max_cycle;Signal;HPM_P1;HPM_P2
2022/04/29 00:00:00;;;;;;;22.55;10.43;;;;;;;3.02;100.00;103143.50;4953705;28;20465;-72
2022/04/29 00:02:27;;;;;;;20.02;10.43;;;;;;;3.03;100.00;103145.19;4954042;28;20083;-73
2022/04/29 00:04:52;;;;;;;27.40;11.43;;;;;;;3.04;100.00;103141.56;4970320;28;20032;-72
2022/04/29 00:07:18;;;;;;;24.20;10.55;;;;;;;3.05;100.00;103135.31;4969403;28;20065;-71
2022/04/29 00:09:43;;;;;;;23.95;11.63;;;;;;;3.08;100.00;103136.88;4934535;28;20081;-71
2022/04/29 00:12:09;;;;;;;23.02;11.10;;;;;;;3.05;100.00;103137.97;4950610;28;20048;-71
2022/04/29 00:14:35;;;;;;;20.67;10.57;;;;;;;3.02;100.00;103132.84;4933591;28;20060;-71
2022/04/29 00:17:00;;;;;;;24.90;10.95;;;;;;;2.99;100.00;103133.06;4952172;28;20109;-71
2022/04/29 00:19:26;;;;;;;23.27;10.38;;;;;;;2.99;100.00;103148.19;4934513;28;20057;-71
2022/04/29 00:21:52;;;;;;;19.98;11.35;;;;;;;2.97;100.00;103139.44;4952703;28;20164;-70
2022/04/29 00:24:17;;;;;;;20.55;10.07;;;;;;;2.94;100.00;103143.16;4949974;28;20034;-72
2022/04/29 00:26:42;;;;;;;23.55;11.85;;;;;;;2.93;100.00;103133.50;4937321;28;20049;-72
2022/04/29 00:29:09;;;;;;;25.38;10.32;;;;;;;2.93;100.00;103140.63;4950460;28;20076;-72
2022/04/29 00:31:35;;;;;;;18.52;10.27;;;;;;;2.90;100.00;103133.69;4934204;28;20050;-72
2022/04/29 00:34:01;;;;;;;21.48;10.35;;;;;;;2.86;100.00;103133.06;4934750;28;20037;-72
2022/04/29 00:36:26;;;;;;;20.95;10.57;;;;;;;2.85;100.00;103138.50;4934235;28;20056;-72
2022/04/29 00:38:52;;;;;;;18.50;10.48;;;;;;;2.82;100.00;103138.72;4948897;28;20054;-72
2022/04/29 00:41:22;;;;;;;27.08;10.55;;;;;;;2.82;100.00;103130.72;4933743;28;20104;-72
2022/04/29 00:44:04;;;;;;;17.42;10.07;;;;;;;2.86;100.00;103129.56;4947552;28;20030;-72
2022/04/29 00:46:39;;;;;;;24.05;10.75;;;;;;;2.89;100.00;103131.16;4946896;28;20127;-71
2022/04/29 00:49:06;;;;;;;19.05;10.43;;;;;;;2.88;100.00;103135.63;4940511;28;20054;-71
2022/04/29 00:51:32;;;;;;;19.90;10.02;;;;;;;2.87;100.00;103133.91;4948639;28;20057;-72
2022/04/29 00:53:58;;;;;;;28.55;11.80;;;;;;;2.86;100.00;103125.06;4933559;28;20053;-72
2022/04/29 00:56:26;;;;;;;27.23;11.95;;;;;;;2.86;100.00;103110.91;4964162;28;23757;-71
2022/04/29 00:58:58;;;;;;;26.70;11.45;;;;;;;2.89;100.00;103121.34;4933923;28;20144;-72
2022/04/29 01:01:25;;;;;;;19.55;10.18;;;;;;;2.86;100.00;103105.59;4948942;28;20034;-71
2022/04/29 01:03:51;;;;;;;21.02;10.77;;;;;;;2.86;100.00;103103.78;4907580;28;20683;-72
2022/04/29 01:06:17;;;;;;;25.48;10.50;;;;;;;2.87;100.00;103107.28;4949635;28;20045;-71
2022/04/29 01:08:42;;;;;;;24.33;10.27;;;;;;;2.85;100.00;103109.22;4946046;28;20046;-72
2022/04/29 01:11:08;;;;;;;16.35;10.20;;;;;;;2.80;100.00;103114.00;4902285;28;20188;-71
2022/04/29 01:13:34;;;;;;;18.83;10.10;;;;;;;2.76;100.00;103104.53;4931585;28;20129;-71
2022/04/29 01:15:59;;;;;;;27.55;10.73;;;;;;;2.70;100.00;103107.59;4917795;28;20174;-71
2022/04/29 01:18:25;;;;;;;20.98;10.63;;;;;;;2.65;100.00;103104.41;4947495;28;20483;-70
2022/04/29 01:21:01;;;;;;;23.30;11.02;;;;;;;2.59;100.00;103103.88;4921216;28;20629;-70
2022/04/29 01:23:28;;;;;;;15.98;10.23;;;;;;;2.56;100.00;103092.59;4928489;28;20036;-71
2022/04/29 01:25:54;;;;;;;18.95;10.73;;;;;;;2.55;100.00;103089.06;4920607;28;20406;-71
2022/04/29 01:28:21;;;;;;;23.13;11.80;;;;;;;2.53;100.00;103093.66;4933310;28;20120;-71
2022/04/29 01:30:49;;;;;;;22.58;10.85;;;;;;;2.52;100.00;103081.28;4913780;28;20042;-71
2022/04/29 01:33:15;;;;;;;17.92;10.00;;;;;;;2.45;100.00;103085.34;4922647;28;20046;-71
2022/04/29 01:35:40;;;;;;;22.80;10.45;;;;;;;2.38;100.00;103082.25;4928366;28;25036;-71
2022/04/29 01:38:06;;;;;;;20.50;10.32;;;;;;;2.36;100.00;103076.19;4918884;28;20066;-71
2022/04/29 01:40:31;;;;;;;19.48;10.55;;;;;;;2.38;100.00;103073.41;4934154;28;20145;-71
2022/04/29 01:42:57;;;;;;;27.80;10.95;;;;;;;2.35;100.00;103062.97;4902434;28;20073;-70
2022/04/29 01:45:22;;;;;;;24.73;10.82;;;;;;;2.40;100.00;103071.50;4930246;28;20152;-71
2022/04/29 01:47:47;;;;;;;21.48;11.80;;;;;;;2.43;100.00;103071.31;4932989;28;20046;-71
2022/04/29 01:50:13;;;;;;;24.23;11.27;;;;;;;2.48;100.00;103069.16;4926691;28;20049;-71
2022/04/29 01:52:39;;;;;;;24.77;11.88;;;;;;;2.53;100.00;103083.03;4931886;28;20137;-70
2022/04/29 01:55:04;;;;;;;25.00;12.00;;;;;;;2.60;100.00;103078.97;4919095;28;21616;-71
2022/04/29 01:57:30;;;;;;;21.48;11.90;;;;;;;2.67;100.00;103090.06;4930873;28;20038;-70
2022/04/29 01:59:55;;;;;;;26.17;13.35;;;;;;;2.71;100.00;103082.72;4932771;28;20058;-71
2022/04/29 02:02:22;;;;;;;27.55;12.90;;;;;;;2.75;100.00;103086.88;4933984;28;20034;-71
2022/04/29 02:04:47;;;;;;;24.65;11.95;;;;;;;2.76;100.00;103077.91;4919258;28;20490;-71
2022/04/29 02:07:13;;;;;;;19.90;13.10;;;;;;;2.78;100.00;103073.34;4932107;28;20117;-71
2022/04/29 02:09:38;;;;;;;24.85;12.98;;;;;;;2.74;100.00;103074.50;4944414;28;20045;-71
2022/04/29 02:12:04;;;;;;;25.08;11.63;;;;;;;2.72;100.00;103066.63;4956556;28;20980;-70
2022/04/29 02:14:34;;;;;;;27.70;13.57;;;;;;;2.72;100.00;103061.31;4966123;28;20208;-70
2022/04/29 02:17:01;;;;;;;22.25;12.00;;;;;;;2.68;100.00;103058.97;4949578;28;20069;-70
2022/04/29 02:19:28;;;;;;;23.20;11.63;;;;;;;2.60;100.00;103051.53;4968792;28;20034;-71
2022/04/29 02:21:54;;;;;;;22.63;12.18;;;;;;;2.53;100.00;103064.41;4953149;28;20050;-71
2022/04/29 02:24:19;;;;;;;27.65;12.98;;;;;;;2.49;100.00;103080.66;4968424;28;20060;-70
2022/04/29 02:26:45;;;;;;;19.58;12.63;;;;;;;2.50;100.00;103067.28;4948019;28;20527;-71
2022/04/29 02:29:10;;;;;;;24.80;12.50;;;;;;;2.53;100.00;103056.41;4971992;28;20064;-70
2022/04/29 02:31:36;;;;;;;24.73;13.40;;;;;;;2.60;100.00;103055.03;4933122;28;20128;-70
2022/04/29 02:34:01;;;;;;;25.88;13.35;;;;;;;2.60;100.00;103068.34;4952164;28;20107;-70
2022/04/29 02:36:28;;;;;;;24.83;13.32;;;;;;;2.57;100.00;103057.91;4968934;28;20040;-70
2022/04/29 02:38:53;;;;;;;24.63;13.27;;;;;;;2.61;100.00;103064.72;4937935;28;20408;-72
2022/04/29 02:41:19;;;;;;;23.63;13.68;;;;;;;2.63;100.00;103067.25;4948921;28;20120;-71
2022/04/29 02:43:44;;;;;;;24.67;13.90;;;;;;;2.72;100.00;103060.47;4950001;28;20046;-70
2022/04/29 02:46:10;;;;;;;33.85;14.38;;;;;;;2.81;100.00;103065.16;4967555;28;20038;-70
2022/04/29 02:48:35;;;;;;;31.02;14.68;;;;;;;2.86;100.00;103065.66;4950536;28;20146;-70
2022/04/29 02:51:02;;;;;;;25.00;12.85;;;;;;;2.84;100.00;103059.59;4949513;28;20040;-72
2022/04/29 02:53:29;;;;;;;31.67;14.98;;;;;;;2.80;100.00;103050.97;4968719;28;20030;-72
2022/04/29 02:55:54;;;;;;;27.27;13.48;;;;;;;2.74;100.00;103047.88;4953996;28;20049;-71
2022/04/29 02:58:19;;;;;;;20.73;13.07;;;;;;;2.68;100.00;103043.00;4967582;28;20044;-70
2022/04/29 03:00:45;;;;;;;29.13;14.32;;;;;;;2.63;100.00;103054.81;4952872;28;21171;-70
2022/04/29 03:03:10;;;;;;;23.45;13.00;;;;;;;2.53;100.00;103040.47;4969146;28;20379;-72
2022/04/29 03:05:36;;;;;;;27.55;13.77;;;;;;;2.52;100.00;103053.84;4952513;28;20049;-71
2022/04/29 03:08:01;;;;;;;28.45;14.27;;;;;;;2.51;100.00;103066.31;4947860;28;20025;-71
2022/04/29 03:10:27;;;;;;;22.17;13.52;;;;;;;2.55;100.00;103053.63;4950528;28;20060;-71
2022/04/29 03:12:52;;;;;;;22.85;13.57;;;;;;;2.53;100.00;103052.91;4951670;28;20541;-71
2022/04/29 03:15:18;;;;;;;27.83;14.38;;;;;;;2.49;100.00;103048.72;4949939;28;20131;-70
2022/04/29 03:20:35;;;;;;;25.75;14.20;;;;;;;2.41;100.00;103054.59;4952679;28;20041;-70
2022/04/29 03:23:01;;;;;;;25.08;13.80;;;;;;;2.32;100.00;103056.09;4938408;28;20612;-70
2022/04/29 03:25:27;;;;;;;29.45;13.85;;;;;;;2.28;100.00;103048.41;4967116;28;20095;-70
2022/04/29 03:27:52;;;;;;;26.02;13.05;;;;;;;2.22;100.00;103051.50;4951790;28;21118;-70
2022/04/29 03:30:18;;;;;;;25.42;15.20;;;;;;;2.24;100.00;103049.56;4967467;28;20544;-70
2022/04/29 03:32:56;;;;;;;30.02;13.77;;;;;;;2.28;100.00;103043.97;4961551;28;22059;-71
2022/04/29 03:35:21;;;;;;;27.23;13.27;;;;;;;2.24;100.00;103039.78;4966975;28;20065;-70
2022/04/29 03:37:51;;;;;;;27.00;13.27;;;;;;;2.19;100.00;103049.03;4971713;28;20044;-70
2022/04/29 03:40:18;;;;;;;26.13;13.95;;;;;;;2.09;100.00;103041.66;4940224;28;20053;-70
2022/04/29 03:42:43;;;;;;;26.40;13.10;;;;;;;1.97;100.00;103042.50;4971783;28;20037;-71
2022/04/29 03:45:09;;;;;;;27.92;14.20;;;;;;;1.88;100.00;103038.66;4955918;28;20045;-71
2022/04/29 03:47:35;;;;;;;28.27;15.18;;;;;;;1.98;100.00;103038.03;4951253;28;20045;-71
2022/04/29 03:50:01;;;;;;;28.60;14.75;;;;;;;2.00;100.00;103042.31;4957789;28;20057;-71
2022/04/29 03:52:26;;;;;;;29.00;14.95;;;;;;;1.96;100.00;103032.81;4970828;28;20063;-71
2022/04/29 03:54:52;;;;;;;24.55;13.13;;;;;;;1.92;100.00;103044.63;4951255;28;20038;-71
2022/04/29 03:57:18;;;;;;;24.55;14.10;;;;;;;1.91;100.00;103045.56;4944018;28;20046;-71
2022/04/29 03:59:43;;;;;;;24.70;14.50;;;;;;;1.86;100.00;103045.00;4967849;28;20045;-70
2022/04/29 04:02:09;;;;;;;32.78;16.27;;;;;;;1.92;100.00;103047.28;4936846;28;20068;-70
2022/04/29 04:04:34;;;;;;;21.98;14.07;;;;;;;2.10;100.00;103047.84;4969480;28;21227;-70
2022/04/29 04:07:03;;;;;;;32.65;15.90;;;;;;;2.24;100.00;103044.25;4930953;28;20484;-70
2022/04/29 04:09:28;;;;;;;31.63;15.00;;;;;;;2.34;100.00;103053.31;4953681;28;23833;-70
2022/04/29 04:11:54;;;;;;;25.92;15.50;;;;;;;2.47;100.00;103058.66;4952145;28;20690;-70
2022/04/29 04:14:19;;;;;;;31.73;15.60;;;;;;;2.60;100.00;103052.38;4952899;28;20120;-71
2022/04/29 04:16:45;;;;;;;30.85;16.60;;;;;;;2.79;100.00;103048.41;4966667;28;20045;-70
2022/04/29 04:19:11;;;;;;;28.35;16.02;;;;;;;2.95;100.00;103041.06;4937266;28;20063;-70
2022/04/29 04:21:37;;;;;;;35.10;18.35;;;;;;;3.09;100.00;103034.75;4972805;28;20037;-71
2022/04/29 04:24:03;;;;;;;29.58;17.95;;;;;;;3.25;100.00;103038.00;4956497;28;20049;-71
2022/04/29 04:26:28;;;;;;;37.38;17.67;;;;;;;3.31;100.00;103048.22;4969494;28;20120;-70
2022/04/29 04:28:53;;;;;;;34.88;16.98;;;;;;;3.35;100.00;103043.50;4954310;28;20076;-70
2022/04/29 04:31:22;;;;;;;34.55;17.13;;;;;;;3.45;100.00;103047.22;4971521;28;20029;-70
2022/04/29 04:33:48;;;;;;;32.72;17.77;;;;;;;3.56;100.00;103044.59;4955019;28;20613;-71
2022/04/29 04:36:14;;;;;;;38.53;19.23;;;;;;;3.69;100.00;103054.38;4954252;28;20124;-70
2022/04/29 04:38:39;;;;;;;28.35;17.52;;;;;;;3.78;100.00;103046.53;4933248;28;20037;-71
2022/04/29 04:41:07;;;;;;;32.17;17.48;;;;;;;3.87;100.00;103045.00;4927256;28;22712;-71
2022/04/29 04:43:33;;;;;;;29.25;18.13;;;;;;;3.93;100.00;103049.88;4953788;28;20045;-71
2022/04/29 04:45:58;;;;;;;33.60;17.98;;;;;;;4.04;100.00;103052.56;4952769;28;20207;-71
2022/04/29 04:48:23;;;;;;;35.70;19.50;;;;;;;4.14;100.00;103060.75;4971144;28;20561;-71
2022/04/29 04:50:49;;;;;;;27.30;17.80;;;;;;;4.21;100.00;103053.09;4952703;28;20053;-72
2022/04/29 04:53:14;;;;;;;35.05;20.38;;;;;;;4.40;100.00;103064.06;4969337;28;20033;-71
2022/04/29 04:55:40;;;;;;;34.85;20.10;;;;;;;4.57;100.00;103064.59;4948086;28;20044;-72
2022/04/29 04:58:06;;;;;;;31.58;19.42;;;;;;;4.69;100.00;103052.94;4960267;28;20073;-72
2022/04/29 05:00:31;;;;;;;36.42;19.90;;;;;;;4.82;100.00;103053.69;4953221;28;20040;-72
2022/04/29 05:02:57;;;;;;;31.25;18.55;;;;;;;4.98;100.00;103048.84;4937109;28;20176;-72
2022/04/29 05:05:23;;;;;;;35.47;19.80;;;;;;;5.11;100.00;103053.19;4952929;28;20042;-72
2022/04/29 05:07:48;;;;;;;34.20;20.05;;;;;;;5.23;100.00;103046.88;4951675;28;20197;-73
2022/04/29 05:10:14;;;;;;;36.40;19.40;;;;;;;5.36;100.00;103047.56;4952808;28;22766;-73
2022/04/29 05:12:44;;;;;;;34.95;19.50;;;;;;;5.54;100.00;103049.72;4950965;28;21259;-73
2022/04/29 05:15:11;;;;;;;35.60;18.60;;;;;;;5.68;100.00;103041.41;4967886;28;20033;-73
2022/04/29 05:17:39;;;;;;;32.53;20.50;;;;;;;5.98;100.00;103052.25;4968511;28;20033;-72
2022/04/29 05:20:06;;;;;;;35.13;18.42;;;;;;;6.26;100.00;103062.47;4937198;28;21667;-72
2022/04/29 05:22:31;;;;;;;28.48;16.85;;;;;;;6.49;100.00;103060.50;4953234;28;20111;-72
2022/04/29 05:24:57;;;;;;;30.35;17.33;;;;;;;6.85;100.00;103064.50;4953396;28;20076;-72
2022/04/29 05:27:23;;;;;;;26.13;16.08;;;;;;;7.08;100.00;103060.63;4967598;28;20080;-72
2022/04/29 05:29:48;;;;;;;25.80;14.95;;;;;;;7.27;100.00;103049.16;4948452;28;20073;-72
2022/04/29 05:32:15;;;;;;;23.45;13.93;;;;;;;7.41;100.00;103056.81;4967109;28;20030;-72
2022/04/29 05:34:41;;;;;;;21.85;14.38;;;;;;;7.81;100.00;103053.16;4933687;28;20058;-71
2022/04/29 05:37:06;;;;;;;15.82;11.77;;;;;;;8.01;100.00;103058.56;4952342;28;20037;-72
2022/04/29 05:42:19;;;;;;;21.20;11.00;;;;;;;8.21;100.00;103067.41;4955092;28;20049;-72
2022/04/29 05:44:45;;;;;;;18.52;9.43;;;;;;;8.24;100.00;103065.28;4968625;28;20531;-72
2022/04/29 05:47:11;;;;;;;23.45;10.18;;;;;;;8.48;100.00;103064.03;4951391;28;20057;-71
2022/04/29 05:49:38;;;;;;;18.60;9.75;;;;;;;8.73;100.00;103073.28;4952666;28;20040;-71
2022/04/29 05:52:04;;;;;;;12.35;8.73;;;;;;;8.69;100.00;103071.91;4920490;28;20085;-71
2022/04/29 05:54:31;;;;;;;17.13;9.23;;;;;;;8.77;100.00;103072.84;4968493;28;20061;-71
2022/04/29 05:56:57;;;;;;;17.08;7.88;;;;;;;8.67;100.00;103064.00;4948420;28;20179;-71
2022/04/29 05:59:23;;;;;;;14.68;7.45;;;;;;;8.55;100.00;103063.28;4949516;28;20033;-71
2022/04/29 06:01:48;;;;;;;18.60;8.18;;;;;;;8.53;100.00;103056.38;4951867;28;20649;-72
2022/04/29 06:04:14;;;;;;;14.52;7.47;;;;;;;8.57;100.00;103057.78;4951202;28;20049;-72
2022/04/29 06:06:39;;;;;;;16.13;8.18;;;;;;;8.75;100.00;103055.19;4944200;28;20076;-73
2022/04/29 06:09:05;;;;;;;14.65;7.75;;;;;;;8.77;100.00;103050.50;4929610;28;20042;-71
2022/04/29 06:11:30;;;;;;;18.67;7.25;;;;;;;8.67;100.00;103055.94;4965881;28;20150;-73
2022/04/29 06:13:55;;;;;;;10.60;6.95;;;;;;;8.72;100.00;103042.91;4934794;28;20045;-72
2022/04/29 06:16:21;;;;;;;14.45;6.70;;;;;;;8.62;100.00;103036.69;4965435;28;20041;-72
2022/04/29 06:18:47;;;;;;;11.93;7.00;;;;;;;8.83;100.00;103039.16;4962908;28;20045;-72
2022/04/29 06:21:13;;;;;;;13.35;7.05;;;;;;;8.83;100.00;103044.53;4954428;28;20061;-72
2022/04/29 06:23:39;;;;;;;12.25;7.70;;;;;;;8.80;100.00;103044.84;4948336;28;20034;-71
2022/04/29 06:26:04;;;;;;;14.73;7.60;;;;;;;8.80;100.00;103050.22;4934192;28;20104;-72
2022/04/29 06:28:30;;;;;;;13.23;7.80;;;;;;;8.78;100.00;103049.53;4966723;28;20048;-72
2022/04/29 06:30:55;;;;;;;14.52;6.43;;;;;;;8.87;100.00;103045.09;4952885;28;20058;-71
2022/04/29 06:33:21;;;;;;;13.40;5.32;;;;;;;9.00;100.00;103051.00;4966699;28;20073;-71
2022/04/29 06:35:49;;;;;;;12.13;4.50;;;;;;;9.11;100.00;103053.47;4950270;28;20060;-71
2022/04/29 06:38:15;;;;;;;15.25;4.72;;;;;;;9.42;100.00;103050.47;4966444;28;20080;-71
2022/04/29 06:40:41;;;;;;;11.85;4.10;;;;;;;9.74;100.00;103053.50;4968982;28;20099;-71
2022/04/29 06:43:06;;;;;;;10.23;4.07;;;;;;;9.85;100.00;103056.97;4950611;28;22821;-71
2022/04/29 06:45:31;;;;;;;13.23;3.78;;;;;;;10.04;100.00;103057.66;4968574;28;20039;-71
2022/04/29 06:47:57;;;;;;;11.27;4.00;;;;;;;10.06;100.00;103067.41;4952725;28;22630;-70
2022/04/29 06:50:22;;;;;;;14.35;3.83;;;;;;;10.07;100.00;103072.63;4950385;28;20033;-71
2022/04/29 06:52:48;;;;;;;14.13;4.63;;;;;;;10.01;100.00;103065.19;4929166;28;20065;-71
2022/04/29 06:55:13;;;;;;;11.88;3.30;;;;;;;10.12;100.00;103069.50;4961885;28;20766;-71
2022/04/29 06:57:38;;;;;;;9.98;3.38;;;;;;;10.45;100.00;103070.63;4949199;28;20029;-73
2022/04/29 07:00:05;;;;;;;9.32;3.08;;;;;;;10.60;100.00;103069.06;4962306;28;20104;-72
2022/04/29 07:02:32;;;;;;;10.60;2.72;;;;;;;10.63;100.00;103079.50;4960911;28;20044;-71
2022/04/29 07:04:58;;;;;;;8.40;2.53;;;;;;;10.51;100.00;103080.78;4945467;28;20190;-71
2022/04/29 07:07:25;;;;;;;9.50;3.17;;;;;;;10.35;100.00;103081.50;4962193;28;20033;-71
2022/04/29 07:09:51;;;;;;;9.63;2.95;;;;;;;10.39;100.00;103088.28;4931706;28;20076;-71
2022/04/29 07:12:16;;;;;;;7.95;2.90;;;;;;;10.69;100.00;103088.81;4952304;28;20159;-71
2022/04/29 07:14:42;;;;;;;13.93;2.80;;;;;;;11.03;100.00;103094.25;4935828;28;20060;-71
2022/04/29 07:17:09;;;;;;;9.98;2.65;;;;;;;11.32;100.00;103093.00;4953366;28;20048;-71
2022/04/29 07:19:37;;;;;;;8.60;2.70;;;;;;;11.31;100.00;103086.78;4947263;28;20060;-71
2022/04/29 07:22:03;;;;;;;8.07;2.00;;;;;;;11.39;100.00;103081.41;4941623;28;20049;-71
2022/04/29 07:24:28;;;;;;;11.00;2.20;;;;;;;11.57;98.92;103085.84;4950353;28;20038;-70
2022/04/29 07:26:54;;;;;;;8.73;2.40;;;;;;;11.51;94.90;103081.94;4935389;28;20057;-71
2022/04/29 07:29:19;;;;;;;7.55;2.70;;;;;;;11.44;94.42;103083.59;4952800;28;20046;-71
2022/04/29 07:31:45;;;;;;;8.45;2.70;;;;;;;11.14;98.06;103080.47;4920991;28;20144;-72
2022/04/29 07:34:10;;;;;;;12.10;3.47;;;;;;;11.08;100.00;103082.94;4952079;28;20042;-72
2022/04/29 07:42:03;;;;;;;;;;;;;;;10.73;97.25;103069.44;4933927;28;20042;-72
2022/04/29 07:44:29;;;;;;;10.85;1.95;;;;;;;10.54;100.00;103075.06;4950177;28;19924;-72
2022/04/29 07:46:54;;;;;;;11.75;2.63;;;;;;;10.52;99.03;103074.38;4952789;28;20072;-73
2022/04/29 07:49:21;;;;;;;5.53;2.00;;;;;;;10.49;100.00;103072.00;4937216;28;20072;-72
2022/04/29 07:51:46;;;;;;;6.57;2.00;;;;;;;10.49;100.00;103066.59;4951246;28;20034;-72
2022/04/29 07:54:12;;;;;;;5.22;2.10;;;;;;;10.79;100.00;103067.97;4935018;28;20542;-72
2022/04/29 07:56:37;;;;;;;6.15;2.13;;;;;;;11.21;95.81;103070.72;4949969;28;20037;-72
2022/04/29 07:59:03;;;;;;;11.68;2.22;;;;;;;11.69;88.50;103066.47;4935073;28;20045;-72
2022/04/29 08:01:29;;;;;;;7.28;1.77;;;;;;;11.92;80.43;103058.59;4949763;28;20061;-72
2022/04/29 08:03:55;;;;;;;6.40;2.10;;;;;;;12.18;75.00;103066.53;4946109;28;20025;-73
2022/04/29 08:06:21;;;;;;;9.52;1.90;;;;;;;12.54;72.24;103059.91;4923464;28;20058;-72
2022/04/29 08:08:46;;;;;;;10.93;1.77;;;;;;;12.76;68.03;103064.59;4950615;28;20049;-72
2022/04/29 08:11:12;;;;;;;6.50;1.77;;;;;;;13.07;64.34;103064.66;4941878;28;20108;-72
2022/04/29 08:13:38;;;;;;;8.63;2.40;;;;;;;13.04;62.22;103059.59;4970610;28;20076;-72
2022/04/29 08:16:05;;;;;;;10.05;2.05;;;;;;;13.22;63.82;103064.75;4958133;28;20128;-73
2022/04/29 08:18:30;;;;;;;7.80;2.05;;;;;;;13.22;60.08;103062.03;4969152;28;20060;-72
2022/04/29 08:20:56;;;;;;;6.72;1.67;;;;;;;13.52;59.44;103054.16;4938107;28;20048;-73
2022/04/29 08:23:22;;;;;;;9.30;2.00;;;;;;;13.02;60.27;103069.75;4951223;28;20075;-72
2022/04/29 08:25:47;;;;;;;8.75;2.28;;;;;;;12.95;61.79;103067.91;4969506;28;20585;-72
2022/04/29 08:28:13;;;;;;;7.50;1.92;;;;;;;13.06;62.03;103064.84;4953651;28;20053;-72
2022/04/29 08:30:38;;;;;;;5.95;1.63;;;;;;;13.14;59.70;103062.94;4969038;28;20040;-72
2022/04/29 08:33:04;;;;;;;6.05;1.63;;;;;;;13.34;58.98;103052.56;4919934;28;20080;-72
2022/04/29 08:35:30;;;;;;;7.18;1.60;;;;;;;13.08;61.37;103054.66;4942198;28;20094;-71
2022/04/29 08:37:59;;;;;;;11.48;1.75;;;;;;;12.67;63.38;103052.13;4958214;28;20111;-72
2022/04/29 08:40:25;;;;;;;5.57;1.48;;;;;;;12.33;66.53;103057.75;4954109;28;20033;-72
2022/04/29 08:42:51;;;;;;;5.55;1.67;;;;;;;12.18;67.71;103044.94;4941486;28;20060;-72
2022/04/29 08:45:18;;;;;;;7.13;1.70;;;;;;;12.21;69.35;103042.88;4971073;28;20029;-72
2022/04/29 08:47:45;;;;;;;6.35;1.70;;;;;;;11.99;73.10;103053.34;4970923;28;20064;-72
2022/04/29 08:50:20;;;;;;;4.18;1.35;;;;;;;11.75;77.56;103053.31;4937693;28;22840;-72
2022/04/29 08:52:49;;;;;;;8.20;2.08;;;;;;;11.50;86.02;103064.06;4952702;28;20034;-72
2022/04/29 09:00:44;;;;;;;7.97;1.83;;;;;;;11.42;98.32;103074.84;4953463;28;20095;-72
2022/04/29 09:03:16;;;;;;;6.55;1.60;;;;;;;11.46;93.15;103076.19;4951170;28;20025;-72
2022/04/29 09:05:42;;;;;;;9.55;1.83;;;;;;;11.25;96.62;103078.47;4954912;28;20057;-72
2022/04/29 09:08:12;;;;;;;6.35;1.77;;;;;;;11.25;95.39;103073.94;4953269;28;20124;-72
2022/04/29 09:10:38;;;;;;;5.45;2.10;;;;;;;11.23;93.75;103071.41;4916221;28;20073;-72
2022/04/29 09:13:15;;;;;;;10.20;2.17;;;;;;;11.38;87.02;103078.88;4949975;28;20042;-72
2022/04/29 09:15:51;;;;;;;6.88;1.55;;;;;;;11.44;90.15;103062.88;4951407;28;20053;-72
2022/04/29 09:18:33;;;;;;;8.30;2.00;;;;;;;11.55;88.24;103053.63;4938306;28;20061;-72
2022/04/29 09:21:02;;;;;;;7.75;1.77;;;;;;;11.45;89.95;103055.63;4948906;28;20040;-72
2022/04/29 09:23:29;;;;;;;6.00;1.63;;;;;;;11.29;95.20;103064.50;4917726;28;20052;-72
2022/04/29 09:26:01;;;;;;;10.23;1.80;;;;;;;11.47;94.42;103051.72;4949336;28;20126;-72
2022/04/29 09:28:27;;;;;;;7.68;1.90;;;;;;;11.75;87.05;103053.31;4935351;28;20452;-72
2022/04/29 09:30:56;;;;;;;5.60;2.00;;;;;;;11.78;84.66;103053.81;4949326;28;20041;-72
2022/04/29 09:33:23;;;;;;;7.97;2.13;;;;;;;11.74;84.13;103054.31;4932495;28;20144;-71
2022/04/29 09:35:49;;;;;;;6.03;2.22;;;;;;;11.58;86.68;103053.28;4950538;28;20022;-71
2022/04/29 09:41:02;;;;;;;7.95;3.38;;;;;;;11.12;91.12;103054.66;4919964;28;21048;-71
2022/04/29 09:43:34;;;;;;;8.88;2.50;;;;;;;11.36;87.90;103060.13;4961776;28;20030;-71
2022/04/29 09:46:08;;;;;;;7.50;3.10;;;;;;;11.20;91.78;103060.94;4939246;28;21972;-72
2022/04/29 09:48:49;;;;;;;6.28;2.58;;;;;;;11.16;85.20;103056.88;4948910;28;20040;-72
2022/04/29 09:51:15;;;;;;;6.22;2.83;;;;;;;11.06;88.49;103058.00;4934107;28;20050;-72
2022/04/29 09:53:40;;;;;;;6.55;3.58;;;;;;;10.98;88.15;103061.50;4948731;28;20576;-71
2022/04/29 09:56:11;;;;;;;9.15;3.60;;;;;;;10.95;92.89;103062.69;4919844;28;20081;-71
2022/04/29 09:58:37;;;;;;;6.43;3.45;;;;;;;11.12;89.86;103063.56;4948104;28;20109;-72
2022/04/29 10:01:07;;;;;;;8.27;3.13;;;;;;;11.16;88.88;103062.28;4933873;28;20054;-72
2022/04/29 10:03:35;;;;;;;7.57;2.97;;;;;;;11.38;89.19;103068.06;4935615;28;20156;-72
2022/04/29 10:06:02;;;;;;;7.88;3.08;;;;;;;11.46;86.48;103060.00;4931255;28;20069;-73
2022/04/29 10:08:28;;;;;;;7.93;3.17;;;;;;;11.56;86.55;103066.09;4948793;28;20037;-71
2022/04/29 10:10:55;;;;;;;6.13;2.53;;;;;;;11.57;84.96;103066.94;4949557;28;27312;-72
2022/04/29 10:13:21;;;;;;;12.48;3.20;;;;;;;11.42;83.70;103074.84;4934441;28;20050;-72
2022/04/29 10:15:47;;;;;;;10.50;3.17;;;;;;;11.33;87.11;103075.81;4948583;28;20049;-71
2022/04/29 10:21:17;;;;;;;10.98;2.92;;;;;;;11.48;86.08;103084.97;4949067;28;20041;-73
2022/04/29 10:23:50;;;;;;;6.30;3.28;;;;;;;11.83;80.58;103069.50;4933510;28;20343;-72
2022/04/29 10:26:25;;;;;;;9.17;3.40;;;;;;;11.98;77.22;103070.59;4949190;28;20037;-72
2022/04/29 10:28:50;;;;;;;7.25;3.65;;;;;;;12.03;71.05;103062.81;4934021;28;20353;-72
2022/04/29 10:31:19;;;;;;;10.73;3.47;;;;;;;12.33;69.91;103063.16;4941890;28;20117;-72
2022/04/29 10:33:44;;;;;;;11.23;4.22;;;;;;;12.46;67.32;103057.22;4929992;28;20073;-73
2022/04/29 10:36:12;;;;;;;9.52;4.40;;;;;;;12.58;65.13;103062.09;4942694;28;20197;-73
2022/04/29 10:38:39;;;;;;;7.47;4.20;;;;;;;12.70;64.76;103064.44;4939414;28;20044;-73
2022/04/29 10:41:17;;;;;;;8.27;4.78;;;;;;;13.02;62.45;103069.75;4925953;28;20060;-72
2022/04/29 10:43:52;;;;;;;9.68;4.40;;;;;;;12.87;62.23;103071.47;4943764;28;20113;-73
2022/04/29 10:46:39;;;;;;;11.23;4.00;;;;;;;12.77;60.73;103070.84;4943133;28;20152;-72
2022/04/29 10:49:25;;;;;;;6.43;4.22;;;;;;;12.32;61.21;103061.44;4947248;28;20030;-72
2022/04/29 10:52:00;;;;;;;4.82;2.95;;;;;;;11.92;64.39;103069.38;4930466;28;20049;-72
2022/04/29 10:54:35;;;;;;;8.68;4.47;;;;;;;11.61;69.01;103066.44;4962360;28;20064;-71
2022/04/29 10:57:02;;;;;;;12.35;5.50;;;;;;;11.50;70.25;103061.34;4937013;28;20054;-72
2022/04/29 10:59:28;;;;;;;6.72;4.22;;;;;;;11.70;70.28;103051.09;4960866;28;20041;-73
2022/04/29 11:02:06;;;;;;;7.03;4.15;;;;;;;11.87;71.37;103054.72;4939086;28;20109;-74
2022/04/29 11:04:31;;;;;;;8.05;3.72;;;;;;;12.02;69.09;103071.09;4952965;28;20034;-72
2022/04/29 11:06:57;;;;;;;9.90;3.72;;;;;;;12.23;67.82;103062.47;4936762;28;20977;-72
2022/04/29 11:09:48;;;;;;;9.25;3.95;;;;;;;12.01;67.53;103070.25;4955515;28;20104;-73
2022/04/29 11:12:32;;;;;;;11.02;4.53;;;;;;;12.02;67.65;103061.13;4968174;28;20045;-73
2022/04/29 11:15:14;;;;;;;12.25;4.03;;;;;;;11.93;67.00;103063.00;4970397;28;20091;-73
2022/04/29 11:17:40;;;;;;;8.10;3.88;;;;;;;11.81;65.53;103055.34;4951182;28;20041;-73
2022/04/29 11:20:17;;;;;;;6.30;3.72;;;;;;;11.52;69.57;103062.03;4956715;28;22861;-74
2022/04/29 11:26:05;;;;;;;10.63;4.40;;;;;;;11.56;73.62;103071.50;4968610;28;20144;-73
2022/04/29 11:28:30;;;;;;;8.20;3.50;;;;;;;11.44;70.01;103056.59;4954844;28;20630;-73
2022/04/29 11:31:01;;;;;;;8.05;3.72;;;;;;;11.45;69.04;103058.31;4956357;28;20057;-73
2022/04/29 11:33:27;;;;;;;5.47;3.47;;;;;;;11.36;69.32;103059.28;4968794;28;20029;-73
2022/04/29 11:36:09;;;;;;;9.63;4.05;;;;;;;11.44;69.22;103070.09;4956009;28;21025;-73
2022/04/29 11:38:44;;;;;;;9.82;3.33;;;;;;;11.40;69.33;103066.88;4969603;28;20040;-73